Time;durP1;ratioP1;P1;durP2;ratioP2;P2;SDS_P1;SDS_P2;PMS_P1;PMS_P2;Temp;Humidity;BMP_temperature;BMP_pressure;BME280_temperature;BME280_humidity;BME280_pressure;Samples;Min_cycle;Max_cycle;Signal;HPM_P1;HPM_P2
2022/04/06 00:04:53;;;;;;;8.83;7.30;;;;;;;7.35;100.00;95392.59;10413172;28;21029;-56
2022/04/06 00:09:53;;;;;;;7.83;5.90;;;;;;;7.45;100.00;95394.97;10412352;28;20212;-55
2022/04/06 00:14:54;;;;;;;9.20;7.07;;;;;;;7.41;100.00;95401.50;10413237;28;20291;-58
2022/04/06 00:19:55;;;;;;;11.23;8.33;;;;;;;7.37;100.00;95384.59;10412041;28;20231;-58
2022/04/06 00:24:56;;;;;;;11.93;8.10;;;;;;;7.23;100.00;95393.91;10412803;28;20213;-58
2022/04/06 00:29:57;;;;;;;11.37;9.13;;;;;;;7.02;100.00;95397.88;10412010;28;20192;-58
2022/04/06 00:40:19;;;;;;;9.47;7.00;;;;;;;6.98;100.00;95388.78;10411816;28;20251;-58
2022/04/06 00:45:23;;;;;;;10.63;8.53;;;;;;;6.93;100.00;95399.69;10411979;28;20225;-58
2022/04/06 00:50:24;;;;;;;13.23;10.23;;;;;;;6.83;100.00;95408.66;10411665;28;20239;-58
2022/04/06 00:55:28;;;;;;;11.77;7.97;;;;;;;6.85;100.00;95396.31;10411148;28;20220;-56
2022/04/06 01:00:29;;;;;;;12.27;10.00;;;;;;;6.73;100.00;95403.66;10411160;28;20646;-60
2022/04/06 01:05:30;;;;;;;13.20;10.40;;;;;;;6.69;100.00;95395.38;10410950;28;20232;-60
2022/04/06 01:10:30;;;;;;;11.17;9.07;;;;;;;6.69;100.00;95394.53;10411425;28;20193;-60
2022/04/06 01:15:31;;;;;;;11.57;9.27;;;;;;;6.71;100.00;95393.41;10411065;28;20236;-61
2022/04/06 01:20:31;;;;;;;12.53;9.53;;;;;;;6.68;100.00;95396.34;10410372;28;20303;-59
2022/04/06 01:25:35;;;;;;;14.73;10.47;;;;;;;6.71;100.00;95383.00;10410881;28;20243;-59
2022/04/06 01:30:35;;;;;;;12.60;9.77;;;;;;;6.61;100.00;95390.16;10409892;28;20566;-60
2022/04/06 01:35:38;;;;;;;13.63;11.13;;;;;;;6.64;100.00;95378.59;10410834;28;20209;-58
2022/04/06 01:40:38;;;;;;;13.20;9.87;;;;;;;6.69;100.00;95386.72;10410496;28;20220;-60
2022/04/06 01:45:39;;;;;;;13.33;10.60;;;;;;;6.61;100.00;95382.34;10410535;28;20204;-60
2022/04/06 01:55:58;;;;;;;15.23;10.93;;;;;;;6.68;100.00;95383.31;10410240;28;20224;-61
2022/04/06 02:00:58;;;;;;;12.17;10.30;;;;;;;6.73;100.00;95388.03;10410211;28;20223;-56
2022/04/06 02:05:59;;;;;;;14.97;11.93;;;;;;;6.86;100.00;95390.94;10406356;22;20245;-59
2022/04/06 02:10:59;;;;;;;16.90;13.87;;;;;;;6.78;100.00;95385.72;10368788;28;20735;-58
2022/04/06 02:16:00;;;;;;;17.33;11.57;;;;;;;6.74;100.00;95380.06;10368974;28;20209;-57
2022/04/06 02:21:00;;;;;;;12.03;9.20;;;;;;;6.78;100.00;95377.94;10368086;28;20217;-54
2022/04/06 02:26:00;;;;;;;13.13;10.67;;;;;;;6.76;100.00;95391.09;10368845;28;20217;-60
2022/04/06 02:31:01;;;;;;;15.93;12.20;;;;;;;6.77;100.00;95384.94;10368314;28;20217;-56
2022/04/06 02:36:03;;;;;;;13.53;12.07;;;;;;;6.94;100.00;95380.50;10375687;28;20225;-60
2022/04/06 02:41:03;;;;;;;13.97;9.20;;;;;;;6.83;100.00;95369.63;10375617;28;20773;-60
2022/04/06 02:46:04;;;;;;;15.53;11.93;;;;;;;6.82;100.00;95373.22;10375117;28;20208;-60
2022/04/06 02:51:04;;;;;;;15.43;12.70;;;;;;;6.85;100.00;95372.88;10375047;28;20186;-54
2022/04/06 02:56:04;;;;;;;17.23;11.07;;;;;;;6.86;100.00;95383.13;10374131;28;20240;-58
2022/04/06 03:01:05;;;;;;;14.97;10.03;;;;;;;6.83;100.00;95365.25;10374264;28;20213;-55
2022/04/06 03:06:07;;;;;;;14.73;11.23;;;;;;;6.88;100.00;95385.56;10373855;28;20703;-58
2022/04/06 03:11:07;;;;;;;13.13;10.27;;;;;;;6.90;100.00;95388.81;10374232;28;20276;-59
2022/04/06 03:16:08;;;;;;;11.67;8.63;;;;;;;6.88;100.00;95369.94;10374365;28;20236;-60
2022/04/06 03:21:08;;;;;;;12.47;9.23;;;;;;;6.83;100.00;95356.59;10373671;28;20225;-58
2022/04/06 03:26:08;;;;;;;15.97;10.50;;;;;;;6.75;100.00;95373.88;10373994;28;20220;-60
2022/04/06 03:31:09;;;;;;;13.53;10.57;;;;;;;6.73;100.00;95372.41;10373014;28;20194;-55
2022/04/06 03:36:09;;;;;;;15.83;11.27;;;;;;;6.70;100.00;95373.53;10373439;28;20225;-55
2022/04/06 03:41:10;;;;;;;15.63;11.03;;;;;;;6.62;100.00;95372.78;10373213;28;20237;-55
2022/04/06 03:46:11;;;;;;;15.20;9.77;;;;;;;6.55;100.00;95370.78;10371777;28;20202;-57
2022/04/06 03:51:11;;;;;;;15.47;11.23;;;;;;;6.57;100.00;95368.03;10372953;28;20251;-61
2022/04/06 03:56:11;;;;;;;16.70;12.30;;;;;;;6.56;100.00;95364.63;10372451;28;20220;-59
2022/04/06 04:01:12;;;;;;;15.97;12.90;;;;;;;6.56;100.00;95363.81;10372395;28;20209;-55
2022/04/06 04:06:12;;;;;;;18.93;11.43;;;;;;;6.62;100.00;95362.38;10369610;28;20275;-55
2022/04/06 04:11:13;;;;;;;16.40;9.90;;;;;;;6.65;100.00;95369.84;10372360;28;20225;-61
2022/04/06 04:16:13;;;;;;;16.67;11.57;;;;;;;6.69;100.00;95366.75;10372389;28;20221;-61
2022/04/06 04:21:32;;;;;;;13.30;9.77;;;;;;;6.67;100.00;95373.06;10371756;28;20233;-58
2022/04/06 04:26:34;;;;;;;13.40;9.83;;;;;;;6.71;100.00;95369.19;10371964;28;20217;-55
2022/04/06 04:31:35;;;;;;;15.87;11.73;;;;;;;6.71;100.00;95363.97;10371324;28;20197;-56
2022/04/06 04:36:35;;;;;;;13.30;9.37;;;;;;;6.75;100.00;95360.88;10371300;28;20731;-57
2022/04/06 04:41:35;;;;;;;15.17;10.83;;;;;;;6.74;100.00;95364.44;10371413;28;20231;-61
2022/04/06 04:46:36;;;;;;;15.13;10.23;;;;;;;6.75;100.00;95370.44;10371131;28;20224;-60
2022/04/06 04:51:36;;;;;;;10.17;8.50;;;;;;;6.81;100.00;95375.00;10371092;28;20272;-60
2022/04/06 04:56:40;;;;;;;11.17;6.30;;;;;;;6.90;100.00;95362.78;10370380;28;20742;-59
2022/04/06 05:01:40;;;;;;;11.27;8.33;;;;;;;6.93;100.00;95378.06;10370575;28;20231;-52
2022/04/06 05:06:41;;;;;;;11.97;7.67;;;;;;;6.97;100.00;95384.56;10370557;28;20237;-60
2022/04/06 05:11:41;;;;;;;9.17;7.00;;;;;;;6.93;100.00;95372.84;10370424;28;20266;-54
2022/04/06 05:16:41;;;;;;;9.30;7.33;;;;;;;6.90;100.00;95378.41;10370538;28;20232;-61
2022/04/06 05:21:42;;;;;;;13.33;7.53;;;;;;;6.93;100.00;95380.66;10369639;28;20225;-57
2022/04/06 05:26:42;;;;;;;8.97;7.43;;;;;;;6.90;100.00;95388.81;10369992;28;20284;-56
2022/04/06 05:31:42;;;;;;;10.77;7.63;;;;;;;6.94;100.00;95383.09;10369672;28;20556;-57
2022/04/06 05:36:43;;;;;;;10.67;7.37;;;;;;;6.95;100.00;95381.31;10369904;28;20675;-59
2022/04/06 05:41:43;;;;;;;9.47;7.27;;;;;;;6.96;100.00;95388.13;10370030;28;20582;-59
2022/04/06 05:46:43;;;;;;;11.57;6.87;;;;;;;7.06;100.00;95388.78;10369674;28;20683;-59
2022/04/06 05:51:44;;;;;;;9.90;7.20;;;;;;;7.12;100.00;95388.09;10369802;28;20715;-59
2022/04/06 05:56:44;;;;;;;9.60;6.63;;;;;;;7.25;100.00;95400.59;10369465;28;20233;-59
2022/04/06 06:01:45;;;;;;;9.43;7.47;;;;;;;7.26;100.00;95410.03;10369338;28;20221;-58
2022/04/06 06:06:45;;;;;;;10.03;7.47;;;;;;;7.03;100.00;95417.75;10371117;28;20264;-59
2022/04/06 06:11:46;;;;;;;11.00;8.40;;;;;;;6.86;100.00;95421.34;10376830;28;20243;-57
2022/04/06 06:16:47;;;;;;;11.33;7.83;;;;;;;6.91;100.00;95426.88;10377063;28;20588;-58
2022/04/06 06:21:47;;;;;;;10.90;8.03;;;;;;;6.93;100.00;95436.13;10376495;28;20252;-59
2022/04/06 06:26:48;;;;;;;8.67;6.73;;;;;;;6.99;100.00;95420.84;10376711;28;20213;-57
2022/04/06 06:31:49;;;;;;;8.83;7.00;;;;;;;6.96;100.00;95425.41;10375870;28;20189;-55
2022/04/06 06:36:49;;;;;;;8.43;6.80;;;;;;;7.03;100.00;95419.53;10379394;28;20217;-55
2022/04/06 06:41:49;;;;;;;10.93;6.70;;;;;;;7.08;100.00;95425.06;10391958;28;20296;-60
2022/04/06 06:46:50;;;;;;;10.47;7.23;;;;;;;7.21;100.00;95427.13;10394540;28;20791;-58
2022/04/06 06:51:50;;;;;;;9.23;7.00;;;;;;;7.31;100.00;95422.56;10392422;28;20193;-58
2022/04/06 06:56:50;;;;;;;9.70;7.03;;;;;;;7.51;100.00;95417.75;10388341;28;20224;-60
2022/04/06 07:01:51;;;;;;;8.30;6.37;;;;;;;7.52;100.00;95423.75;10367605;28;20225;-59
2022/04/06 07:06:51;;;;;;;6.77;6.07;;;;;;;7.63;100.00;95419.00;10372912;28;20303;-58
2022/04/06 07:11:52;;;;;;;9.50;5.80;;;;;;;7.80;100.00;95405.88;10371388;28;20201;-56
2022/04/06 07:16:54;;;;;;;8.47;5.80;;;;;;;7.95;100.00;95400.75;10370783;28;20220;-58
2022/04/06 07:21:54;;;;;;;8.83;6.63;;;;;;;7.95;100.00;95398.94;10370018;28;20302;-57
2022/04/06 07:26:54;;;;;;;6.93;4.77;;;;;;;8.11;100.00;95397.22;10372557;28;20391;-57
2022/04/06 07:31:55;;;;;;;8.17;5.97;;;;;;;8.02;100.00;95405.13;10362439;28;20190;-60
2022/04/06 07:36:55;;;;;;;11.67;6.00;;;;;;;8.13;100.00;95401.28;10339945;28;20287;-60
2022/04/06 07:41:58;;;;;;;8.63;5.53;;;;;;;8.45;100.00;95388.19;10359146;28;20249;-60
2022/04/06 07:47:00;;;;;;;7.17;5.50;;;;;;;8.21;100.00;95398.63;10367277;28;20700;-60
2022/04/06 07:52:00;;;;;;;7.47;4.13;;;;;;;8.33;100.00;95406.03;10366253;28;20569;-57
2022/04/06 07:57:01;;;;;;;7.53;5.17;;;;;;;8.29;100.00;95399.53;10366211;28;20209;-59
2022/04/06 08:02:01;;;;;;;8.97;4.87;;;;;;;8.38;100.00;95382.84;10358106;28;20220;-59
2022/04/06 08:07:01;;;;;;;10.57;5.27;;;;;;;8.41;100.00;95369.44;10353083;28;20237;-55
2022/04/06 08:12:02;;;;;;;8.50;5.20;;;;;;;8.45;100.00;95373.34;10366395;28;20511;-61
2022/04/06 08:17:04;;;;;;;7.00;5.23;;;;;;;8.84;100.00;95372.34;10367191;28;20219;-60
2022/04/06 08:22:04;;;;;;;5.90;4.63;;;;;;;8.71;100.00;95366.91;10373789;28;20299;-57
2022/04/06 08:27:05;;;;;;;9.83;5.43;;;;;;;8.36;100.00;95366.53;10369802;28;20213;-55
2022/04/06 08:32:05;;;;;;;8.40;5.30;;;;;;;8.58;100.00;95375.34;10385523;28;20652;-56
2022/04/06 08:37:08;;;;;;;8.63;4.30;;;;;;;8.72;99.88;95369.34;10385117;28;20209;-59
2022/04/06 08:42:09;;;;;;;31.40;19.83;;;;;;;8.59;100.00;95379.59;10382647;28;20654;-56
2022/04/06 08:47:10;;;;;;;8.17;5.73;;;;;;;8.55;100.00;95376.50;10369445;28;20213;-57
2022/04/06 08:52:11;;;;;;;8.33;5.63;;;;;;;8.30;99.42;95369.84;10363772;28;20197;-57
2022/04/06 08:57:11;;;;;;;7.73;5.17;;;;;;;8.27;100.00;95384.06;10365768;28;20271;-56
2022/04/06 09:02:16;;;;;;;6.17;5.07;;;;;;;8.53;100.00;95378.50;10364485;28;20279;-60
2022/04/06 09:07:18;;;;;;;10.17;6.30;;;;;;;8.35;100.00;95377.97;10365628;28;20276;-59
2022/04/06 09:12:23;;;;;;;7.37;5.40;;;;;;;8.50;100.00;95380.63;10364715;28;20193;-59
2022/04/06 09:17:24;;;;;;;6.87;5.03;;;;;;;8.57;100.00;95374.56;10365406;28;20313;-58
2022/04/06 09:22:24;;;;;;;6.40;4.80;;;;;;;9.28;100.00;95368.91;10365147;28;20208;-59
2022/04/06 09:27:32;;;;;;;4.90;3.93;;;;;;;9.91;96.80;95349.31;10365086;28;20201;-59
2022/04/06 09:32:32;;;;;;;6.13;4.87;;;;;;;10.08;94.15;95347.28;10364183;28;20197;-57
2022/04/06 09:37:32;;;;;;;7.03;5.03;;;;;;;10.26;92.01;95326.69;10364779;28;20254;-59
2022/04/06 09:42:33;;;;;;;5.97;4.53;;;;;;;9.99;88.17;95313.34;10369970;28;20331;-58
2022/04/06 09:47:39;;;;;;;5.37;4.17;;;;;;;10.24;88.22;95301.69;10372881;28;20247;-59
2022/04/06 09:52:40;;;;;;;7.03;4.43;;;;;;;10.25;87.10;95301.50;10372608;28;20193;-60
2022/04/06 09:57:42;;;;;;;6.97;4.40;;;;;;;10.75;82.51;95245.66;10372871;28;20219;-58
2022/04/06 10:02:44;;;;;;;7.73;4.90;;;;;;;10.63;80.53;95225.28;10369738;28;20594;-59
2022/04/06 10:07:45;;;;;;;7.87;5.27;;;;;;;10.79;77.33;95202.38;10372561;28;20661;-58
2022/04/06 10:12:46;;;;;;;6.83;4.90;;;;;;;10.05;78.09;95229.91;10406778;28;20188;-56
2022/04/06 10:17:46;;;;;;;6.13;4.63;;;;;;;10.10;78.88;95240.59;10388710;28;20211;-58
2022/04/06 10:22:57;;;;;;;7.03;3.37;;;;;;;10.15;80.43;95249.50;10390210;28;20714;-58
2022/04/06 10:28:00;;;;;;;6.37;4.87;;;;;;;9.91;81.77;95268.22;10397208;28;20213;-53
2022/04/06 10:33:17;;;;;;;5.47;4.33;;;;;;;11.03;79.04;95198.44;10369768;28;20185;-57
2022/04/06 10:38:18;;;;;;;7.10;3.90;;;;;;;10.58;77.01;95180.53;10371437;28;20221;-59
2022/04/06 10:43:36;;;;;;;7.23;4.73;;;;;;;10.69;75.13;95155.59;10371476;28;20308;-57
2022/04/06 10:48:56;;;;;;;6.17;5.00;;;;;;;10.62;74.17;95149.53;10370198;28;20212;-59
2022/04/06 10:53:56;;;;;;;7.68;5.00;;;;;;;10.97;73.30;95150.25;10370355;28;20246;-59
2022/04/06 10:58:57;;;;;;;6.57;4.60;;;;;;;10.40;74.83;95165.34;10371928;28;20698;-53
2022/04/06 11:04:15;;;;;;;6.83;5.20;;;;;;;11.17;73.97;95152.91;10368496;28;20248;-59
2022/04/06 11:14:59;;;;;;;4.65;3.92;;;;;;;12.13;71.49;95117.63;10386434;28;20212;-55
2022/04/06 11:20:06;;;;;;;6.60;4.72;;;;;;;11.60;72.81;95138.63;10368104;28;20225;-60
2022/04/06 11:25:08;;;;;;;8.25;4.90;;;;;;;11.72;74.08;95181.63;10374665;28;20213;-60
2022/04/06 11:30:12;;;;;;;6.00;5.27;;;;;;;10.70;75.96;95188.63;10379597;28;20192;-59
2022/04/06 11:35:15;;;;;;;8.17;4.90;;;;;;;11.47;76.49;95196.31;10372338;28;20221;-59
2022/04/06 11:40:17;;;;;;;6.23;5.40;;;;;;;10.91;76.55;95195.56;10366097;28;20225;-56
2022/04/06 11:45:31;;;;;;;5.93;4.30;;;;;;;11.79;75.02;95171.09;10368805;28;20217;-59
2022/04/06 11:50:34;;;;;;;6.88;4.78;;;;;;;11.63;73.08;95140.06;10368022;28;20199;-60
2022/04/06 11:55:48;;;;;;;7.50;5.13;;;;;;;11.02;74.15;95145.19;10367624;28;20743;-57
2022/04/06 12:01:00;;;;;;;6.43;4.93;;;;;;;11.50;71.92;95083.97;10367878;28;20620;-60
2022/04/06 12:06:01;;;;;;;6.63;4.55;;;;;;;11.33;72.21;95083.56;10366508;28;20229;-59
2022/04/06 12:11:02;;;;;;;6.47;4.38;;;;;;;11.39;74.33;95129.13;10368594;28;20218;-58
2022/04/06 12:16:03;;;;;;;5.20;4.65;;;;;;;11.21;74.15;95120.06;10365904;28;20205;-59
2022/04/06 12:21:17;;;;;;;5.47;4.68;;;;;;;11.76;74.71;95130.38;10368023;28;20659;-58
2022/04/06 12:26:19;;;;;;;5.50;4.47;;;;;;;11.92;71.59;95078.47;10366555;28;20210;-56
2022/04/06 12:31:34;;;;;;;6.35;4.60;;;;;;;12.49;69.29;95055.88;10484518;28;20561;-59
2022/04/06 12:36:35;;;;;;;8.05;4.80;;;;;;;12.48;70.03;95067.41;10482886;28;20568;-57
2022/04/06 12:41:53;;;;;;;6.78;4.60;;;;;;;12.81;67.70;95013.88;10483996;28;20248;-61
2022/04/06 12:46:54;;;;;;;6.35;4.90;;;;;;;12.11;67.75;95017.28;10482936;28;20716;-60
2022/04/06 12:52:09;;;;;;;7.15;4.85;;;;;;;11.60;70.54;95067.81;10483719;28;20285;-58
2022/04/06 12:57:19;;;;;;;6.57;5.10;;;;;;;11.78;70.43;95077.69;10482267;28;20290;-59
2022/04/06 13:02:48;;;;;;;4.38;3.75;;;;;;;12.73;67.20;94995.75;10482533;28;20279;-58
2022/04/06 13:07:51;;;;;;;6.53;3.83;;;;;;;12.84;67.64;95023.16;10479779;28;20238;-59
2022/04/06 13:12:51;;;;;;;6.57;4.05;;;;;;;12.84;66.90;94994.25;10481726;28;20199;-59
2022/04/06 13:17:51;;;;;;;5.60;4.20;;;;;;;12.96;65.74;94974.16;10481291;28;20589;-58
2022/04/06 13:22:52;;;;;;;7.70;4.43;;;;;;;12.75;64.94;94951.66;10481108;28;20654;-57
2022/04/06 13:27:52;;;;;;;7.05;4.07;;;;;;;12.25;66.75;94988.31;10479130;28;20791;-58
2022/04/06 13:32:53;;;;;;;5.60;4.43;;;;;;;12.68;67.33;94990.31;10481161;28;20253;-58
2022/04/06 13:37:53;;;;;;;5.53;4.10;;;;;;;12.71;67.21;94995.16;10460097;28;20219;-59
2022/04/06 13:42:53;;;;;;;4.15;3.72;;;;;;;12.52;67.75;95003.97;10416028;28;20195;-57
2022/04/06 13:47:54;;;;;;;4.20;3.58;;;;;;;12.65;68.69;95023.06;10450038;28;20220;-59
2022/04/06 13:52:54;;;;;;;4.07;3.60;;;;;;;12.57;67.01;94980.47;10446331;28;20204;-60
2022/04/06 13:57:55;;;;;;;4.15;2.83;;;;;;;12.97;66.46;94973.13;10438307;28;20220;-55
2022/04/06 14:02:55;;;;;;;4.93;3.40;;;;;;;12.67;66.33;94960.59;10432289;28;20188;-59
2022/04/06 14:07:56;;;;;;;3.80;3.38;;;;;;;12.87;66.46;94958.88;10432831;28;20229;-58
2022/04/06 14:12:56;;;;;;;4.43;4.00;;;;;;;12.84;66.13;94939.06;10440020;28;20215;-58
2022/04/06 14:17:57;;;;;;;7.20;4.10;;;;;;;12.74;66.87;94946.63;10430696;28;20575;-56
2022/04/06 14:22:57;;;;;;;8.55;3.72;;;;;;;12.28;67.49;94959.84;10448739;22;20248;-59
2022/04/06 14:27:57;;;;;;;4.75;3.72;;;;;;;12.48;68.22;94970.22;10411062;28;20311;-60
2022/04/06 14:32:58;;;;;;;4.63;3.22;;;;;;;13.10;65.47;94911.75;10408949;28;20209;-60
2022/04/06 14:37:59;;;;;;;7.45;4.07;;;;;;;13.88;62.09;94852.41;10409435;28;20193;-60
2022/04/06 14:42:59;;;;;;;4.85;3.63;;;;;;;14.38;59.67;94813.59;10409493;28;20220;-59
2022/04/06 14:47:59;;;;;;;4.53;3.50;;;;;;;14.76;60.32;94820.31;10408704;28;20216;-59
2022/04/06 14:53:00;;;;;;;6.18;4.95;;;;;;;14.79;59.31;94802.22;10408823;28;20295;-61
2022/04/06 14:58:00;;;;;;;6.35;4.60;;;;;;;14.22;59.94;94809.81;10408918;28;20242;-59
2022/04/06 15:03:04;;;;;;;4.68;3.83;;;;;;;12.96;64.50;94886.63;10408227;28;20216;-60
2022/04/06 15:08:10;;;;;;;8.50;4.13;;;;;;;12.80;64.23;94878.25;10408932;28;20750;-60
2022/04/06 15:13:10;;;;;;;6.55;4.00;;;;;;;12.40;67.31;94941.56;10408307;28;20204;-55
2022/04/06 15:18:10;;;;;;;5.05;3.55;;;;;;;12.24;67.23;94934.22;10408615;28;20678;-55
2022/04/06 15:23:11;;;;;;;5.32;3.40;;;;;;;13.25;63.58;94863.28;10407913;28;20261;-57
2022/04/06 15:28:12;;;;;;;5.15;3.53;;;;;;;13.43;62.92;94854.59;10408043;28;20246;-61
2022/04/06 15:33:14;;;;;;;4.13;2.83;;;;;;;13.68;61.35;94823.72;10407772;28;20307;-60
2022/04/06 15:38:14;;;;;;;6.07;3.80;;;;;;;12.92;63.23;94859.94;10405906;28;20188;-57
2022/04/06 15:43:14;;;;;;;7.28;4.10;;;;;;;12.78;64.59;94877.66;10408071;28;20628;-59
2022/04/06 15:48:15;;;;;;;5.85;4.45;;;;;;;12.94;64.71;94889.47;10407199;28;20715;-60
2022/04/06 15:53:16;;;;;;;5.53;4.22;;;;;;;12.01;65.44;94890.13;10407610;28;20890;-58
2022/04/06 15:58:17;;;;;;;4.95;3.45;;;;;;;11.82;66.14;94886.56;10407127;28;20946;-57
2022/04/06 16:03:18;;;;;;;7.13;4.10;;;;;;;11.73;67.36;94913.03;10406013;28;20813;-57
2022/04/06 16:08:19;;;;;;;15.75;6.05;;;;;;;12.05;66.96;94904.44;10407034;28;20400;-56
2022/04/06 16:13:19;;;;;;;20.15;9.27;;;;;;;11.83;68.30;94924.91;10409884;28;20216;-61
2022/04/06 16:18:20;;;;;;;4.63;3.50;;;;;;;11.57;68.43;94919.53;10411398;28;20192;-61
2022/04/06 16:23:21;;;;;;;7.60;3.60;;;;;;;11.46;69.50;94922.00;10410693;28;20285;-61
2022/04/06 16:28:21;;;;;;;5.80;3.22;;;;;;;11.48;70.10;94951.44;10410582;28;20256;-61
2022/04/06 16:33:21;;;;;;;6.95;3.00;;;;;;;11.43;69.96;94934.50;10410857;28;20216;-59
2022/04/06 16:38:22;;;;;;;6.88;3.17;;;;;;;11.21;70.36;94927.91;10410168;28;20195;-61
2022/04/06 16:43:22;;;;;;;4.77;3.30;;;;;;;11.21;68.52;94906.94;10410704;28;20228;-55
2022/04/06 16:48:22;;;;;;;4.57;3.23;;;;;;;10.93;67.15;94855.56;10409669;28;20220;-56
2022/04/06 16:53:23;;;;;;;5.40;3.00;;;;;;;10.85;67.59;94867.06;10405420;28;20220;-57
2022/04/06 16:58:23;;;;;;;3.70;2.60;;;;;;;10.65;68.01;94874.97;10409829;28;20197;-56
2022/04/06 17:03:24;;;;;;;4.43;3.15;;;;;;;10.78;69.39;94897.72;10409593;28;20243;-59
2022/04/06 17:08:25;;;;;;;4.60;2.97;;;;;;;10.53;69.98;94908.81;10409606;28;20212;-58
2022/04/06 17:13:25;;;;;;;5.70;3.33;;;;;;;10.48;69.51;94898.13;10409513;28;20626;-59
2022/04/06 17:18:25;;;;;;;3.90;2.80;;;;;;;10.49;69.31;94896.28;10417294;28;20562;-57
2022/04/06 17:23:26;;;;;;;6.43;3.03;;;;;;;10.40;68.06;94877.38;10416514;28;20726;-57
2022/04/06 17:28:28;;;;;;;3.03;2.20;;;;;;;10.44;68.33;94873.34;10416444;28;20687;-57
2022/04/06 17:33:29;;;;;;;3.20;2.60;;;;;;;10.24;67.80;94877.72;10416453;28;20209;-57
2022/04/06 17:38:30;;;;;;;3.67;2.50;;;;;;;10.11;68.53;94873.31;10415919;28;20632;-57
2022/04/06 17:43:30;;;;;;;4.13;2.30;;;;;;;10.12;69.31;94882.75;10416329;28;20695;-60
2022/04/06 17:48:30;;;;;;;2.30;2.07;;;;;;;9.99;69.25;94889.56;10415937;28;20231;-58
2022/04/06 17:53:33;;;;;;;2.27;2.07;;;;;;;9.95;69.80;94900.63;10415838;28;20224;-56
2022/04/06 17:58:33;;;;;;;3.07;1.83;;;;;;;9.77;70.41;94906.38;10416307;28;20199;-57
2022/04/06 18:03:33;;;;;;;3.93;1.90;;;;;;;9.61;71.54;94910.16;10416233;28;20211;-61
2022/04/06 18:08:34;;;;;;;5.20;2.30;;;;;;;9.54;72.26;94923.22;10415694;28;20260;-55
2022/04/06 18:13:40;;;;;;;4.13;2.43;;;;;;;9.31;73.30;94943.59;10415357;28;20703;-59
2022/04/06 18:18:44;;;;;;;2.77;2.43;;;;;;;9.35;73.45;94943.00;10413541;28;20934;-56
2022/04/06 18:23:45;;;;;;;3.23;2.10;;;;;;;9.24;74.16;94939.13;10414071;28;20245;-57
2022/04/06 18:28:47;;;;;;;2.67;2.40;;;;;;;9.12;74.98;94956.34;10414612;28;20588;-57
2022/04/06 18:33:47;;;;;;;2.00;1.90;;;;;;;8.97;75.36;94973.91;10412470;28;20706;-60
2022/04/06 18:38:48;;;;;;;4.27;2.00;;;;;;;8.92;76.74;94971.88;10412587;28;20292;-59
2022/04/06 18:43:49;;;;;;;4.33;2.20;;;;;;;8.83;77.12;94980.84;10413885;28;20220;-58
2022/04/06 18:48:49;;;;;;;2.80;1.73;;;;;;;8.87;77.11;94969.81;10413956;28;20725;-56
2022/04/06 18:53:50;;;;;;;3.03;2.20;;;;;;;8.82;77.53;94977.41;10413461;28;20204;-56
2022/04/06 18:58:50;;;;;;;2.87;2.07;;;;;;;8.84;77.82;94972.81;10413447;28;20284;-57
2022/04/06 19:03:50;;;;;;;3.00;2.23;;;;;;;8.69;78.12;94985.94;10413230;28;20208;-58
2022/04/06 19:08:51;;;;;;;4.20;2.07;;;;;;;8.71;78.62;94985.75;10412898;28;20227;-59
2022/04/06 19:13:51;;;;;;;3.97;1.93;;;;;;;8.74;78.53;94985.38;10412961;28;20244;-58
2022/04/06 19:18:51;;;;;;;3.57;2.13;;;;;;;8.59;79.04;94988.06;10412674;28;20250;-61
2022/04/06 19:23:52;;;;;;;4.70;2.17;;;;;;;8.68;78.85;94984.34;10411880;28;20240;-58
2022/04/06 19:28:53;;;;;;;3.23;2.27;;;;;;;8.67;79.19;94977.50;10412162;28;20239;-56
2022/04/06 19:33:55;;;;;;;3.60;2.23;;;;;;;8.52;79.99;94989.81;10409106;28;20220;-59
2022/04/06 19:38:55;;;;;;;2.93;2.07;;;;;;;8.54;80.16;94982.59;10411127;28;20255;-59
2022/04/06 19:43:57;;;;;;;2.47;2.23;;;;;;;8.66;79.74;94960.19;10411453;28;20298;-58
2022/04/06 19:48:58;;;;;;;2.70;2.20;;;;;;;8.88;78.58;94940.09;10411673;28;20722;-59
2022/04/06 19:53:59;;;;;;;2.97;2.23;;;;;;;8.90;78.50;94943.34;10411430;28;20310;-59
2022/04/06 19:58:59;;;;;;;3.67;2.33;;;;;;;8.95;78.22;94940.16;10411196;28;20623;-61
2022/04/06 20:04:03;;;;;;;2.60;2.33;;;;;;;9.05;77.92;94931.97;10411414;28;20211;-61
2022/04/06 20:09:05;;;;;;;2.97;2.67;;;;;;;8.95;78.54;94931.53;10410890;28;20221;-60
2022/04/06 20:14:05;;;;;;;4.10;2.90;;;;;;;8.90;78.75;94930.28;10412136;28;20212;-61
2022/04/06 20:19:06;;;;;;;6.60;2.40;;;;;;;8.78;78.76;94937.00;10411737;28;20185;-60
2022/04/06 20:24:08;;;;;;;3.07;2.23;;;;;;;8.71;79.44;94936.16;10429275;23;20244;-60
2022/04/06 20:29:08;;;;;;;2.60;2.40;;;;;;;8.63;79.47;94920.63;10424190;28;20216;-57
2022/04/06 20:34:08;;;;;;;2.50;2.30;;;;;;;8.53;80.04;94920.94;10425195;28;20208;-59
2022/04/06 20:39:09;;;;;;;4.50;2.50;;;;;;;8.57;80.20;94917.78;10419466;28;20224;-59
2022/04/06 20:44:11;;;;;;;7.30;2.87;;;;;;;8.66;79.67;94909.81;10410117;28;20209;-58
2022/04/06 20:49:12;;;;;;;4.93;2.50;;;;;;;8.44;81.20;94920.28;10411580;28;20307;-57
2022/04/06 20:54:12;;;;;;;2.97;2.50;;;;;;;8.26;82.12;94912.84;10418137;28;20310;-56
2022/04/06 20:59:13;;;;;;;3.10;2.10;;;;;;;8.24;82.29;94919.25;10418076;28;20599;-58
2022/04/06 21:04:13;;;;;;;3.63;2.50;;;;;;;8.23;82.35;94909.81;10417532;28;20589;-59
2022/04/06 21:09:15;;;;;;;2.97;2.27;;;;;;;7.95;84.15;94921.78;10417307;28;20216;-59
2022/04/06 21:14:15;;;;;;;3.47;2.60;;;;;;;8.00;84.82;94927.22;10417028;28;20227;-58
2022/04/06 21:19:17;;;;;;;4.33;2.80;;;;;;;8.09;84.24;94916.72;10417211;28;20193;-55
2022/04/06 21:24:18;;;;;;;6.87;3.03;;;;;;;8.31;83.37;94899.25;10417026;28;20625;-55
2022/04/06 21:29:18;;;;;;;4.20;2.63;;;;;;;8.42;82.58;94895.31;10417484;28;20220;-56
2022/04/06 21:34:20;;;;;;;6.63;2.63;;;;;;;8.34;83.20;94894.44;10417181;28;20224;-57
2022/04/06 21:39:21;;;;;;;4.73;2.40;;;;;;;8.36;83.04;94891.66;10416802;28;20567;-56
2022/04/06 21:44:24;;;;;;;3.50;2.00;;;;;;;8.26;83.32;94884.16;10416916;28;20220;-57
2022/04/06 21:49:24;;;;;;;3.30;2.43;;;;;;;8.32;83.08;94883.41;10416787;28;20299;-57
2022/04/06 21:54:26;;;;;;;3.77;2.20;;;;;;;8.24;83.48;94882.72;10416500;28;20296;-54
2022/04/06 21:59:27;;;;;;;3.77;3.13;;;;;;;8.24;83.48;94882.72;10415858;28;20638;-58
2022/04/06 22:04:27;;;;;;;3.20;2.80;;;;;;;8.13;84.33;94895.28;10415585;28;20226;-60
2022/04/06 22:09:27;;;;;;;5.07;2.80;;;;;;;8.15;83.91;94880.25;10415454;28;20232;-57
2022/04/06 22:14:34;;;;;;;3.10;2.70;;;;;;;8.04;84.27;94885.97;10415308;28;20223;-58
2022/04/06 22:19:35;;;;;;;9.73;2.90;;;;;;;7.99;84.94;94909.16;10415354;28;20730;-58
2022/04/06 22:24:35;;;;;;;5.03;2.53;;;;;;;8.14;83.39;94881.22;10411929;28;20311;-61
2022/04/06 22:29:35;;;;;;;3.87;2.83;;;;;;;8.02;83.54;94882.72;10410873;28;20208;-60
2022/04/06 22:34:36;;;;;;;3.77;2.60;;;;;;;8.00;83.92;94879.50;10414179;28;20212;-60
2022/04/06 22:39:36;;;;;;;3.80;2.40;;;;;;;7.97;83.46;94888.50;10413730;28;20195;-58
2022/04/06 22:44:36;;;;;;;3.23;2.53;;;;;;;7.82;83.96;94890.34;10413930;28;20281;-61
2022/04/06 22:49:37;;;;;;;4.37;2.60;;;;;;;7.81;84.84;94884.34;10413729;28;20243;-59
2022/04/06 22:54:38;;;;;;;7.53;2.60;;;;;;;7.70;84.74;94878.78;10413434;28;20212;-56
2022/04/06 22:59:38;;;;;;;4.50;2.80;;;;;;;7.68;85.71;94868.53;10413372;28;20211;-60
2022/04/06 23:04:38;;;;;;;5.40;2.67;;;;;;;7.66;85.11;94860.13;10413148;28;20698;-57
2022/04/06 23:09:39;;;;;;;4.00;2.47;;;;;;;7.69;85.11;94851.94;10412951;28;21023;-56
2022/04/06 23:14:39;;;;;;;3.27;2.73;;;;;;;7.69;85.26;94844.09;10411974;28;20247;-60
2022/04/06 23:19:40;;;;;;;4.03;2.83;;;;;;;7.64;85.67;94846.44;10412765;28;20254;-56
2022/04/06 23:24:40;;;;;;;4.70;2.90;;;;;;;7.71;85.05;94836.09;10412103;28;20294;-59
2022/04/06 23:29:41;;;;;;;3.80;2.30;;;;;;;7.63;84.95;94835.22;10412311;28;20228;-59
2022/04/06 23:34:42;;;;;;;4.07;2.20;;;;;;;7.62;85.05;94827.59;10411824;28;20220;-60
2022/04/06 23:39:42;;;;;;;3.80;2.60;;;;;;;7.58;85.27;94834.16;10411733;28;20185;-60